Аэропорт: Шпаковское. Ставрополь

ICAO: URMT

METAR:
2024-04-22 22:00:00
URMT 222200Z 22002MPS CAVOK 12/07 Q1021 R07/010070 NOSIG RMK QFE725
TAF:
2024-04-22 20:00:00
TAF URMT 222000Z 2221/2306 15003G10MPS 9999 SCT030 
  TEMPO 2221/2223 21003MPS 6000 -SHRA SCT020CB 
  BECMG 2223/2301 24003G08MPS 
  TEMPO 2303/2306 27003G09MPS